createdAt,value
2018-03-27T00:01:13.938Z,37.47
2018-03-27T00:03:40.169Z,40.27
2018-03-27T00:06:06.367Z,37.50
2018-03-27T00:08:32.614Z,36.30
2018-03-27T00:10:58.919Z,34.97
2018-03-27T00:13:25.125Z,34.60
2018-03-27T00:15:51.347Z,36.70
2018-03-27T00:18:17.594Z,34.90
2018-03-27T00:20:43.802Z,35.90
2018-03-27T00:23:09.994Z,35.40
2018-03-27T00:25:36.195Z,33.70
2018-03-27T00:28:14.565Z,35.80
2018-03-27T00:30:53.656Z,34.63
2018-03-27T00:33:32.023Z,34.87
2018-03-27T00:36:10.539Z,34.30
2018-03-27T00:38:49.029Z,36.60
2018-03-27T00:44:19.760Z,31.13
2018-03-27T00:46:45.992Z,32.83
2018-03-27T00:49:12.144Z,32.00
2018-03-27T00:51:39.147Z,37.07
2018-03-27T00:54:05.417Z,38.83
2018-03-27T00:56:31.608Z,39.33
2018-03-27T00:58:57.829Z,39.37
2018-03-27T01:01:24.072Z,40.33
2018-03-27T01:03:50.251Z,38.20
2018-03-27T01:06:18.549Z,42.67
2018-03-27T01:08:44.800Z,40.33
2018-03-27T01:11:11.053Z,38.67
2018-03-27T01:13:37.247Z,38.63
2018-03-27T01:16:03.545Z,37.93
2018-03-27T01:18:29.729Z,38.80
2018-03-27T01:20:55.900Z,38.40
2018-03-27T01:23:22.178Z,39.27
2018-03-27T01:25:48.388Z,36.03
2018-03-27T01:28:14.610Z,33.67
2018-03-27T01:30:40.862Z,32.57
2018-03-27T01:33:07.103Z,32.60
2018-03-27T01:35:34.052Z,35.20
2018-03-27T01:38:00.298Z,34.10
2018-03-27T01:40:26.524Z,32.73
2018-03-27T01:42:53.489Z,35.73
2018-03-27T01:45:19.689Z,34.23
2018-03-27T01:47:46.627Z,34.40
2018-03-27T01:50:12.800Z,34.27
2018-03-27T01:52:39.033Z,31.10
2018-03-27T01:55:05.274Z,29.57
2018-03-27T01:57:31.480Z,28.47
2018-03-27T01:59:57.717Z,29.40
2018-03-27T02:02:23.931Z,29.57
2018-03-27T02:04:50.129Z,32.30
2018-03-27T02:07:16.376Z,31.43
2018-03-27T02:09:42.637Z,33.77
2018-03-27T02:12:14.970Z,31.57
2018-03-27T02:14:47.424Z,32.43
2018-03-27T02:17:19.762Z,35.07
2018-03-27T02:19:52.232Z,31.93
2018-03-27T02:22:18.514Z,30.63
2018-03-27T02:24:44.756Z,30.70
2018-03-27T02:27:10.981Z,30.20
2018-03-27T02:29:37.214Z,31.47
2018-03-27T02:32:03.448Z,32.00
2018-03-27T02:34:29.837Z,30.20
2018-03-27T02:36:56.817Z,34.27
2018-03-27T02:39:23.046Z,34.17
2018-03-27T02:41:49.552Z,33.17
2018-03-27T02:44:15.804Z,33.37
2018-03-27T02:46:42.035Z,33.57
2018-03-27T02:49:08.418Z,33.20
2018-03-27T02:51:34.759Z,32.13
2018-03-27T02:54:01.034Z,33.03
2018-03-27T02:56:27.262Z,31.93
2018-03-27T02:58:53.509Z,33.57
2018-03-27T03:01:19.777Z,33.20
2018-03-27T03:03:46.807Z,33.37
2018-03-27T03:06:13.010Z,34.17
2018-03-27T03:08:39.281Z,30.57
2018-03-27T03:11:05.505Z,31.00
2018-03-27T03:13:31.689Z,32.10
2018-03-27T03:15:57.966Z,32.57
2018-03-27T03:18:25.167Z,31.30
2018-03-27T03:20:51.577Z,31.73
2018-03-27T03:23:17.815Z,31.10
2018-03-27T03:25:44.023Z,32.47
2018-03-27T03:28:10.257Z,32.08
2018-03-27T03:30:36.653Z,29.98
2018-03-27T03:33:02.863Z,30.05
2018-03-27T03:35:29.089Z,31.85
2018-03-27T03:37:55.431Z,31.23
2018-03-27T03:40:21.637Z,34.67
2018-03-27T03:42:47.853Z,33.22
2018-03-27T03:45:14.061Z,33.65
2018-03-27T03:47:40.316Z,32.00
2018-03-27T03:50:06.521Z,35.60
2018-03-27T03:52:32.772Z,32.65
2018-03-27T03:54:58.967Z,31.48
2018-03-27T03:57:25.186Z,32.58
2018-03-27T03:59:51.428Z,33.20
2018-03-27T04:02:17.645Z,33.05
2018-03-27T04:04:43.859Z,32.90
2018-03-27T04:07:10.096Z,32.47
2018-03-27T04:09:36.281Z,32.95
2018-03-27T04:12:02.467Z,32.80
2018-03-27T04:14:28.698Z,35.85
2018-03-27T04:16:54.905Z,36.58
2018-03-27T04:19:21.109Z,33.50
2018-03-27T04:21:48.137Z,38.08
2018-03-27T04:24:14.385Z,36.20
2018-03-27T04:26:40.567Z,33.13
2018-03-27T04:29:06.816Z,35.90
2018-03-27T04:31:33.039Z,38.22
2018-03-27T04:33:59.273Z,35.60
2018-03-27T04:36:25.521Z,40.65
2018-03-27T04:38:51.770Z,41.40
2018-03-27T04:41:18.010Z,39.20
2018-03-27T04:43:44.316Z,37.60
2018-03-27T04:46:11.545Z,33.35
2018-03-27T04:48:37.777Z,34.58
2018-03-27T04:51:04.024Z,33.13
2018-03-27T04:53:30.248Z,36.88
2018-03-27T04:55:56.412Z,38.38
2018-03-27T04:58:22.647Z,35.50
2018-03-27T05:00:48.846Z,37.97
2018-03-27T05:03:15.806Z,37.65
2018-03-27T05:05:42.049Z,41.03
2018-03-27T05:08:08.224Z,42.92
2018-03-27T05:10:34.469Z,44.80
2018-03-27T05:13:00.701Z,42.90
2018-03-27T05:15:27.713Z,43.13
2018-03-27T05:17:53.979Z,41.00
2018-03-27T05:20:20.928Z,40.95
2018-03-27T05:22:47.902Z,41.53
2018-03-27T05:25:14.121Z,42.85
2018-03-27T05:27:40.312Z,42.30
2018-03-27T05:30:06.523Z,45.15
2018-03-27T05:32:32.709Z,43.95
2018-03-27T05:34:58.932Z,44.17
2018-03-27T05:37:25.139Z,40.67
2018-03-27T05:39:52.080Z,40.60
2018-03-27T05:42:19.040Z,42.85
2018-03-27T05:44:45.343Z,44.05
2018-03-27T05:47:11.610Z,43.20
2018-03-27T05:49:37.825Z,41.95
2018-03-27T05:52:04.201Z,39.63
2018-03-27T05:54:30.428Z,39.58
2018-03-27T05:56:56.665Z,39.27
2018-03-27T05:59:22.852Z,39.10
2018-03-27T06:01:49.125Z,40.97
2018-03-27T06:04:15.326Z,39.95
2018-03-27T06:06:41.558Z,37.80
2018-03-27T06:09:08.000Z,39.70
2018-03-27T06:11:34.283Z,38.47
2018-03-27T06:14:00.574Z,38.85
2018-03-27T06:16:26.831Z,39.90
2018-03-27T06:18:53.881Z,40.08
2018-03-27T06:21:20.863Z,35.60
2018-03-27T06:23:47.109Z,37.60
2018-03-27T06:26:13.423Z,39.53
2018-03-27T06:28:39.626Z,37.80
2018-03-27T06:31:05.841Z,38.40
2018-03-27T06:33:32.119Z,37.45
2018-03-27T06:35:58.343Z,37.60
2018-03-27T06:38:24.588Z,40.35
2018-03-27T06:40:50.839Z,39.10
2018-03-27T06:43:17.057Z,38.17
2018-03-27T06:45:43.287Z,39.75
2018-03-27T06:48:09.568Z,37.93
2018-03-27T06:50:35.797Z,40.33
2018-03-27T06:53:01.990Z,39.03
2018-03-27T06:55:28.277Z,37.83
2018-03-27T06:57:54.505Z,39.30
2018-03-27T07:00:20.736Z,38.10
2018-03-27T07:02:46.983Z,38.28
2018-03-27T07:05:13.224Z,40.10
2018-03-27T07:07:39.459Z,38.47
2018-03-27T07:10:05.660Z,38.37
2018-03-27T07:12:31.924Z,37.88
2018-03-27T07:14:58.127Z,40.27
2018-03-27T07:17:24.402Z,37.42
2018-03-27T07:19:50.644Z,40.85
2018-03-27T07:22:16.901Z,39.87
2018-03-27T07:24:43.097Z,41.80
2018-03-27T07:27:09.271Z,43.07
2018-03-27T07:29:35.504Z,39.47
2018-03-27T07:32:01.730Z,40.33
2018-03-27T07:34:28.688Z,38.63
2018-03-27T07:36:55.702Z,37.20
2018-03-27T07:39:21.940Z,35.40
2018-03-27T07:41:48.177Z,41.07
2018-03-27T07:44:14.496Z,38.80
2018-03-27T07:46:40.752Z,37.73
2018-03-27T07:49:07.696Z,35.40
2018-03-27T07:51:34.707Z,37.33
2018-03-27T07:54:00.913Z,36.97
2018-03-27T07:56:27.128Z,37.37
2018-03-27T07:58:53.344Z,35.13
2018-03-27T08:01:19.593Z,37.07
2018-03-27T08:03:45.809Z,39.00
2018-03-27T08:06:12.054Z,36.03
2018-03-27T08:08:40.361Z,32.77
2018-03-27T08:11:06.757Z,33.00
2018-03-27T08:13:33.067Z,35.70
2018-03-27T08:16:02.434Z,34.40
2018-03-27T08:18:28.780Z,32.13
2018-03-27T08:21:02.316Z,33.70
2018-03-27T08:23:33.666Z,30.90
2018-03-27T08:26:00.144Z,33.70
2018-03-27T08:28:26.501Z,32.53
2018-03-27T08:30:56.228Z,31.20
2018-03-27T08:33:31.627Z,32.47
2018-03-27T08:35:58.374Z,32.73
2018-03-27T08:38:24.619Z,29.83
2018-03-27T08:40:51.628Z,31.40
2018-03-27T08:43:17.873Z,30.07
2018-03-27T08:45:44.258Z,29.57
2018-03-27T08:48:10.517Z,29.47
2018-03-27T08:50:36.750Z,31.73
2018-03-27T08:53:02.994Z,28.80
2018-03-27T08:55:29.212Z,30.87
2018-03-27T08:57:55.562Z,29.50
2018-03-27T09:00:22.842Z,27.43
2018-03-27T09:02:51.627Z,29.00
2018-03-27T09:05:29.338Z,30.03
2018-03-27T09:07:56.543Z,28.90
2018-03-27T09:10:23.942Z,28.83
2018-03-27T09:12:50.425Z,28.30
2018-03-27T09:15:16.694Z,29.13
2018-03-27T09:17:42.937Z,30.60
2018-03-27T09:20:09.183Z,31.47
2018-03-27T09:22:35.408Z,29.00
2018-03-27T09:25:01.746Z,29.60
2018-03-27T09:27:27.966Z,29.40
2018-03-27T09:29:54.261Z,28.07
2018-03-27T09:32:20.464Z,26.40
2018-03-27T09:34:46.707Z,25.67
2018-03-27T09:37:13.663Z,28.30
2018-03-27T09:39:39.860Z,28.67
2018-03-27T09:42:06.064Z,28.20
2018-03-27T09:44:32.291Z,28.10
2018-03-27T09:46:58.649Z,27.40
2018-03-27T09:49:24.828Z,28.83
2018-03-27T09:51:51.088Z,25.30
2018-03-27T09:54:17.330Z,25.37
2018-03-27T09:56:44.358Z,25.50
2018-03-27T09:59:10.641Z,29.00
2018-03-27T10:01:38.719Z,24.90
2018-03-27T10:04:05.028Z,25.33
2018-03-27T10:06:31.270Z,25.93
2018-03-27T10:08:57.517Z,23.83
2018-03-27T10:11:25.820Z,26.73
2018-03-27T10:13:52.080Z,25.93
2018-03-27T10:16:19.044Z,25.90
2018-03-27T10:18:45.296Z,24.50
2018-03-27T10:21:11.572Z,23.93
2018-03-27T10:23:37.855Z,25.53
2018-03-27T10:26:04.044Z,25.03
2018-03-27T10:28:30.993Z,26.43
2018-03-27T10:30:57.200Z,23.03
2018-03-27T10:33:24.159Z,23.00
2018-03-27T10:35:51.113Z,23.33
2018-03-27T10:38:17.512Z,23.03
2018-03-27T10:40:43.778Z,22.00
2018-03-27T10:43:09.946Z,23.83
2018-03-27T10:45:36.211Z,26.73
2018-03-27T10:48:03.362Z,26.33
2018-03-27T10:50:29.718Z,23.50
2018-03-27T10:52:56.245Z,19.50
2018-03-27T10:55:23.193Z,21.60
2018-03-27T10:57:51.539Z,19.37
2018-03-27T11:00:19.584Z,15.43
2018-03-27T11:02:45.817Z,15.77
2018-03-27T11:05:12.034Z,15.67
2018-03-27T11:07:39.212Z,16.10
2018-03-27T11:10:06.225Z,15.10
2018-03-27T11:12:32.457Z,13.80
2018-03-27T11:14:58.660Z,16.30
2018-03-27T11:17:24.887Z,15.50
2018-03-27T11:19:51.095Z,14.10
2018-03-27T11:22:18.046Z,17.10
2018-03-27T11:24:45.030Z,14.80
2018-03-27T11:27:11.260Z,16.77
2018-03-27T11:29:37.478Z,16.23
2018-03-27T11:32:03.706Z,13.90
2018-03-27T11:34:29.960Z,14.43
2018-03-27T11:36:56.133Z,14.90
2018-03-27T11:39:23.080Z,15.37
2018-03-27T11:41:49.964Z,14.40
2018-03-27T11:44:16.185Z,15.27
2018-03-27T11:46:42.401Z,13.70
2018-03-27T11:49:08.587Z,14.10
2018-03-27T11:51:36.810Z,9.50
2018-03-27T11:54:03.113Z,10.90
2018-03-27T11:56:30.068Z,11.03
2018-03-27T11:58:56.330Z,11.13
2018-03-27T12:01:22.553Z,10.30
2018-03-27T12:03:48.773Z,10.37
2018-03-27T12:06:15.046Z,12.30
2018-03-27T12:08:41.281Z,12.17
2018-03-27T12:11:07.937Z,11.80
2018-03-27T12:13:34.398Z,12.70
2018-03-27T12:16:00.628Z,13.40
2018-03-27T12:18:26.866Z,12.30
2018-03-27T12:20:53.075Z,13.43
2018-03-27T12:23:19.284Z,13.20
2018-03-27T12:25:46.303Z,12.07
2018-03-27T12:28:13.308Z,13.57
2018-03-27T12:30:40.498Z,12.20
2018-03-27T12:33:08.088Z,12.80
2018-03-27T12:35:34.320Z,11.17
2018-03-27T12:38:00.574Z,12.87
2018-03-27T12:40:26.776Z,11.80
2018-03-27T12:42:52.972Z,12.00
2018-03-27T12:45:19.169Z,11.83
2018-03-27T12:47:45.441Z,10.60
2018-03-27T12:50:13.553Z,11.77
2018-03-27T12:52:39.824Z,11.20
2018-03-27T12:55:06.070Z,11.27
2018-03-27T12:57:33.011Z,11.17
2018-03-27T13:00:00.021Z,11.57
2018-03-27T13:02:26.244Z,11.70
2018-03-27T13:04:52.490Z,10.33
2018-03-27T13:07:18.734Z,11.57
2018-03-27T13:09:44.961Z,11.47
2018-03-27T13:12:11.156Z,11.83
2018-03-27T13:14:37.401Z,10.70
2018-03-27T13:19:51.037Z,11.00
2018-03-27T13:22:17.270Z,10.67
2018-03-27T13:24:43.520Z,11.40
2018-03-27T13:27:09.878Z,11.03
2018-03-27T13:29:36.857Z,10.70
2018-03-27T13:32:03.715Z,10.40
2018-03-27T13:34:32.519Z,10.10
2018-03-27T13:37:12.435Z,11.20
2018-03-27T13:39:43.701Z,9.27
2018-03-27T13:42:14.100Z,11.63
2018-03-27T13:44:49.175Z,11.60
2018-03-27T13:47:32.373Z,12.80
2018-03-27T13:50:05.980Z,12.77
2018-03-27T13:52:34.035Z,11.77
2018-03-27T13:57:58.784Z,12.43
2018-03-27T14:00:32.903Z,12.80
2018-03-27T14:03:01.464Z,13.13
2018-03-27T14:05:34.460Z,12.03
2018-03-27T14:08:32.940Z,13.80
2018-03-27T14:14:09.104Z,12.57
2018-03-27T14:16:37.162Z,13.40
2018-03-27T14:19:04.415Z,12.50
2018-03-27T14:24:54.095Z,13.40
2018-03-27T14:27:22.299Z,12.53
2018-03-27T14:33:01.118Z,12.53
2018-03-27T14:35:29.835Z,13.80
2018-03-27T14:37:58.540Z,14.20
2018-03-27T14:40:24.889Z,15.70
2018-03-27T14:42:55.838Z,13.50
2018-03-27T14:47:56.700Z,16.00
2018-03-27T14:56:18.478Z,17.07
2018-03-27T14:58:44.993Z,17.33
2018-03-27T15:01:11.269Z,21.53
2018-03-27T15:03:37.458Z,15.87
2018-03-27T15:06:04.487Z,15.30
2018-03-27T15:08:30.742Z,14.47
2018-03-27T15:10:56.918Z,14.87
2018-03-27T15:13:23.113Z,15.30
2018-03-27T15:15:49.306Z,15.40
2018-03-27T15:18:33.684Z,13.93
2018-03-27T15:20:59.923Z,13.60
2018-03-27T15:23:26.125Z,14.37
2018-03-27T15:25:53.108Z,15.50
2018-03-27T15:28:19.344Z,14.13
2018-03-27T15:30:45.577Z,13.57
2018-03-27T15:33:11.814Z,13.60
2018-03-27T15:35:38.013Z,13.43
2018-03-27T15:38:04.302Z,13.40
2018-03-27T15:40:31.260Z,13.70
2018-03-27T15:42:57.505Z,13.80
2018-03-27T15:45:23.721Z,13.83
2018-03-27T15:47:50.019Z,12.87
2018-03-27T15:50:16.231Z,11.97
2018-03-27T15:52:42.504Z,11.97
2018-03-27T15:55:08.831Z,11.13
2018-03-27T15:57:35.164Z,11.20
2018-03-27T16:00:01.440Z,11.40
2018-03-27T16:02:27.709Z,11.10
2018-03-27T16:04:54.647Z,11.97
2018-03-27T16:07:21.625Z,11.77
2018-03-27T16:09:47.878Z,12.97
2018-03-27T16:12:14.130Z,11.40
2018-03-27T16:14:40.394Z,14.53
2018-03-27T16:17:07.346Z,13.70
2018-03-27T16:19:33.559Z,14.90
2018-03-27T16:22:00.537Z,13.43
2018-03-27T16:24:26.733Z,13.83
2018-03-27T16:26:53.688Z,14.70
2018-03-27T16:29:19.858Z,15.27
2018-03-27T16:31:46.058Z,16.57
2018-03-27T16:34:12.297Z,15.17
2018-03-27T16:36:38.495Z,15.43
2018-03-27T16:39:04.719Z,16.80
2018-03-27T16:41:30.966Z,14.70
2018-03-27T16:43:57.611Z,16.80
2018-03-27T16:46:24.004Z,16.60
2018-03-27T16:48:50.996Z,17.03
2018-03-27T16:51:17.199Z,15.20
2018-03-27T16:53:43.474Z,16.80
2018-03-27T16:56:09.692Z,16.10
2018-03-27T16:58:35.941Z,16.60
2018-03-27T17:01:02.188Z,17.37
2018-03-27T17:03:29.173Z,18.50
2018-03-27T17:05:55.424Z,17.20
2018-03-27T17:08:21.662Z,18.80
2018-03-27T17:10:47.897Z,18.30
2018-03-27T17:13:14.149Z,18.87
2018-03-27T17:15:42.193Z,16.60
2018-03-27T17:18:08.408Z,18.80
2018-03-27T17:20:34.604Z,17.43
2018-03-27T17:23:00.832Z,17.83
2018-03-27T17:25:27.093Z,19.50
2018-03-27T17:27:53.353Z,18.20
2018-03-27T17:30:19.572Z,17.17
2018-03-27T17:32:45.773Z,18.63
2018-03-27T17:35:12.018Z,20.33
2018-03-27T17:37:38.275Z,18.33
2018-03-27T17:40:05.410Z,17.40
2018-03-27T17:42:31.621Z,17.03
2018-03-27T17:44:57.828Z,19.03
2018-03-27T17:47:24.071Z,19.30
2018-03-27T17:49:50.333Z,18.03
2018-03-27T17:52:16.561Z,18.03
2018-03-27T17:54:42.808Z,19.37
2018-03-27T17:57:09.033Z,17.67
2018-03-27T17:59:36.060Z,19.03
2018-03-27T18:02:02.284Z,18.17
2018-03-27T18:04:29.283Z,18.23
2018-03-27T18:06:55.613Z,18.10
2018-03-27T18:09:21.883Z,17.37
2018-03-27T18:11:48.112Z,20.13
2018-03-27T18:14:14.425Z,18.87
2018-03-27T18:16:40.634Z,17.10
2018-03-27T18:19:06.809Z,19.10
2018-03-27T18:21:33.055Z,20.90
2018-03-27T18:24:00.022Z,18.00
2018-03-27T18:26:26.243Z,19.13
2018-03-27T18:28:52.633Z,17.60
2018-03-27T18:31:18.864Z,17.97
2018-03-27T18:33:45.074Z,19.40
2018-03-27T18:36:11.266Z,19.80
2018-03-27T18:38:37.564Z,19.07
2018-03-27T18:41:03.787Z,20.03
2018-03-27T18:43:29.989Z,20.33
2018-03-27T18:45:56.168Z,20.07
2018-03-27T18:48:22.405Z,19.70
2018-03-27T18:50:48.627Z,19.30
2018-03-27T18:53:14.916Z,19.27
2018-03-27T18:55:41.136Z,19.13
2018-03-27T18:58:07.475Z,19.10
2018-03-27T19:00:33.750Z,19.97
2018-03-27T19:03:00.050Z,20.50
2018-03-27T19:05:27.044Z,20.27
2018-03-27T19:07:53.336Z,20.13
2018-03-27T19:10:19.556Z,18.60
2018-03-27T19:12:46.584Z,19.70
2018-03-27T19:15:13.596Z,21.40
2018-03-27T19:17:39.894Z,19.90
2018-03-27T19:20:06.201Z,19.97
2018-03-27T19:22:32.590Z,19.50
2018-03-27T19:24:58.919Z,19.50
2018-03-27T19:27:25.202Z,16.93
2018-03-27T19:29:52.288Z,18.23
2018-03-27T19:32:18.578Z,19.40
2018-03-27T19:34:44.874Z,18.40
2018-03-27T19:37:11.084Z,19.20
2018-03-27T19:39:37.444Z,18.33
2018-03-27T19:42:03.749Z,17.33
2018-03-27T19:44:30.004Z,17.20
2018-03-27T19:46:56.251Z,17.77
2018-03-27T19:49:22.664Z,16.33
2018-03-27T19:51:48.910Z,16.73
2018-03-27T19:54:15.179Z,16.33
2018-03-27T19:56:41.377Z,16.60
2018-03-27T19:59:07.599Z,16.90
2018-03-27T20:01:34.555Z,16.60
2018-03-27T20:04:00.802Z,14.93
2018-03-27T20:06:27.092Z,15.40
2018-03-27T20:08:54.096Z,14.30
2018-03-27T20:11:20.312Z,14.07
2018-03-27T20:13:46.566Z,14.10
2018-03-27T20:16:12.845Z,14.17
2018-03-27T20:18:39.786Z,14.70
2018-03-27T20:21:06.016Z,13.77
2018-03-27T20:23:32.318Z,12.33
2018-03-27T20:25:58.668Z,13.50
2018-03-27T20:28:24.878Z,14.77
2018-03-27T20:30:51.157Z,13.73
2018-03-27T20:33:17.441Z,13.00
2018-03-27T20:35:43.639Z,15.67
2018-03-27T20:38:09.872Z,13.47
2018-03-27T20:40:36.092Z,13.57
2018-03-27T20:43:02.310Z,13.50
2018-03-27T20:45:28.599Z,13.80
2018-03-27T20:47:55.582Z,13.50
2018-03-27T20:50:21.814Z,14.00
2018-03-27T20:52:48.028Z,13.27
2018-03-27T20:55:14.316Z,14.23
2018-03-27T20:57:40.556Z,15.10
2018-03-27T21:00:06.845Z,13.10
2018-03-27T21:02:33.070Z,12.37
2018-03-27T21:05:00.076Z,13.20
2018-03-27T21:07:26.320Z,12.80
2018-03-27T21:09:52.521Z,13.30
2018-03-27T21:12:18.749Z,11.77
2018-03-27T21:14:45.726Z,12.00
2018-03-27T21:37:37.360Z,11.60
2018-03-27T21:40:05.709Z,12.13
2018-03-27T21:42:32.639Z,12.10
2018-03-27T21:44:58.841Z,11.30
2018-03-27T21:47:25.060Z,10.50
2018-03-27T21:49:51.317Z,11.00
2018-03-27T21:52:17.599Z,10.10
2018-03-27T21:54:43.840Z,10.50
2018-03-27T21:57:10.076Z,9.60
2018-03-27T21:59:36.341Z,11.70
2018-03-27T22:02:03.350Z,10.73
2018-03-27T22:04:29.576Z,9.10
2018-03-27T22:06:55.862Z,10.33
2018-03-27T22:09:22.853Z,9.03
2018-03-27T22:11:49.055Z,8.77
2018-03-27T22:14:15.289Z,7.73
2018-03-27T22:16:41.506Z,7.47
2018-03-27T22:19:07.738Z,9.10
2018-03-27T22:21:33.990Z,7.20
2018-03-27T22:24:00.231Z,7.10
2018-03-27T22:26:26.466Z,8.07
2018-03-27T22:28:53.440Z,8.17
2018-03-27T22:31:20.431Z,7.40
2018-03-27T22:33:46.621Z,7.97
2018-03-27T22:36:12.862Z,7.13
2018-03-27T22:38:39.077Z,6.93
2018-03-27T22:41:05.307Z,7.20
2018-03-27T22:43:31.513Z,6.50
2018-03-27T22:45:57.769Z,6.43
2018-03-27T22:48:24.040Z,6.30
2018-03-27T22:50:50.314Z,6.57
2018-03-27T22:53:16.528Z,7.63
2018-03-27T22:55:43.585Z,7.50
2018-03-27T22:58:09.786Z,7.97
2018-03-27T23:00:36.032Z,7.40
2018-03-27T23:03:04.077Z,7.80
2018-03-27T23:05:30.272Z,7.70
2018-03-27T23:07:56.495Z,7.20
2018-03-27T23:10:22.838Z,7.97
2018-03-27T23:12:49.080Z,7.53
2018-03-27T23:15:15.309Z,7.40
2018-03-27T23:17:41.536Z,7.10
2018-03-27T23:20:07.730Z,7.37
2018-03-27T23:22:33.934Z,6.47
2018-03-27T23:25:00.232Z,6.53
2018-03-27T23:27:26.457Z,6.33
2018-03-27T23:29:52.700Z,6.90
2018-03-27T23:32:18.902Z,6.17
2018-03-27T23:34:45.171Z,5.50
2018-03-27T23:37:11.420Z,4.67
2018-03-27T23:39:37.655Z,5.93
2018-03-27T23:42:03.933Z,6.10
2018-03-27T23:44:30.193Z,5.70
2018-03-27T23:46:57.123Z,5.37
2018-03-27T23:49:23.355Z,5.90
2018-03-27T23:51:50.285Z,5.40
2018-03-27T23:54:16.533Z,5.83
2018-03-27T23:56:43.499Z,5.60
2018-03-27T23:59:09.722Z,5.70
